Time;durP1;ratioP1;P1;durP2;ratioP2;P2;SDS_P1;SDS_P2;PMS_P1;PMS_P2;Temp;Humidity;BMP_temperature;BMP_pressure;BME280_temperature;BME280_humidity;BME280_pressure;Samples;Min_cycle;Max_cycle;Signal;HPM_P1;HPM_P2
2021/11/12 00:04:29;;;;;;;11.13;6.15;;;;;;;;;;5071411;28;20440;-36
2021/11/12 00:12:38;;;;;;;12.95;5.47;;;;;;;;;;5033748;28;20056;-36
2021/11/12 00:15:04;;;;;;;11.88;5.70;;;;;;;;;;5071125;28;20077;-36
2021/11/12 00:17:32;;;;;;;12.82;6.15;;;;;;;;;;5071016;28;20043;-36
2021/11/12 00:19:58;;;;;;;10.73;5.45;;;;;;;;;;5071103;28;20464;-36
2021/11/12 00:22:24;;;;;;;8.50;4.88;;;;;;;;;;5070837;28;20028;-36
2021/11/12 00:24:54;;;;;;;10.20;5.10;;;;;;;;;;5071006;28;20116;-36
2021/11/12 00:27:20;;;;;;;12.63;5.70;;;;;;;;;;5070933;28;20016;-37
2021/11/12 00:29:57;;;;;;;15.93;6.93;;;;;;;;;;5070994;28;20103;-36
2021/11/12 00:35:19;;;;;;;12.80;6.05;;;;;;;;;;5071074;28;20020;-36
2021/11/12 00:43:28;;;;;;;13.52;6.00;;;;;;;;;;5074647;28;20047;-36
2021/11/12 00:45:33;;;;;;;10.35;5.80;;;;;;;;;;5068904;28;20479;-36
2021/11/12 00:55:25;;;;;;;12.15;6.22;;;;;;;;;;5074428;28;20031;-36
2021/11/12 00:57:51;;;;;;;11.05;6.13;;;;;;;;;;5074608;28;20031;-36
2021/11/12 01:00:17;;;;;;;13.73;6.20;;;;;;;;;;5074401;28;20079;-36
2021/11/12 01:02:43;;;;;;;15.27;6.78;;;;;;;;;;5074543;28;20032;-36
2021/11/12 01:05:09;;;;;;;10.93;5.90;;;;;;;;;;5074250;28;20045;-36
2021/11/12 01:07:35;;;;;;;11.88;5.20;;;;;;;;;;5074307;28;20016;-36
2021/11/12 01:10:01;;;;;;;15.80;5.57;;;;;;;;;;5074465;28;20032;-36
2021/11/12 01:12:27;;;;;;;13.98;5.97;;;;;;;;;;5056231;28;20379;-36
2021/11/12 01:14:52;;;;;;;11.43;6.43;;;;;;;;;;5074095;28;20029;-36
2021/11/12 01:17:18;;;;;;;15.82;6.70;;;;;;;;;;5073980;28;20020;-36
2021/11/12 01:19:43;;;;;;;14.85;7.10;;;;;;;;;;5074097;28;20031;-36
2021/11/12 01:22:09;;;;;;;9.98;6.22;;;;;;;;;;5074209;28;20024;-36
2021/11/12 01:24:35;;;;;;;13.15;6.75;;;;;;;;;;5074246;28;20474;-36
2021/11/12 01:27:01;;;;;;;12.75;5.95;;;;;;;;;;5074148;28;20029;-37
2021/11/12 01:29:26;;;;;;;10.00;6.30;;;;;;;;;;5072530;28;20086;-36
2021/11/12 01:31:52;;;;;;;13.73;6.40;;;;;;;;;;5074129;28;20009;-37
2021/11/12 01:34:17;;;;;;;10.75;4.72;;;;;;;;;;5073874;28;20032;-36
2021/11/12 01:36:44;;;;;;;7.90;5.22;;;;;;;;;;5073597;28;20055;-36
2021/11/12 01:39:13;;;;;;;12.75;5.97;;;;;;;;;;5073634;28;20039;-36
2021/11/12 01:41:43;;;;;;;14.82;6.03;;;;;;;;;;5073668;28;20487;-36
2021/11/12 01:44:10;;;;;;;9.90;5.97;;;;;;;;;;5073745;28;20071;-36
2021/11/12 01:49:44;;;;;;;11.80;6.28;;;;;;;;;;5073152;28;20524;-37
2021/11/12 01:59:17;;;;;;;9.23;5.82;;;;;;;;;;5073523;28;20382;-36
2021/11/12 02:01:48;;;;;;;15.73;6.72;;;;;;;;;;5073208;28;20016;-36
2021/11/12 02:04:16;;;;;;;14.55;7.50;;;;;;;;;;5073207;28;20131;-36
2021/11/12 02:06:42;;;;;;;10.93;6.35;;;;;;;;;;5073176;28;20012;-36
2021/11/12 02:09:14;;;;;;;12.93;6.15;;;;;;;;;;5073187;28;20100;-36
2021/11/12 02:11:40;;;;;;;11.43;6.95;;;;;;;;;;5073175;28;20497;-36
2021/11/12 02:14:06;;;;;;;13.82;6.05;;;;;;;;;;5073298;28;20020;-36
2021/11/12 02:16:36;;;;;;;10.63;5.20;;;;;;;;;;5073049;28;20036;-36
2021/11/12 02:19:03;;;;;;;17.50;5.90;;;;;;;;;;5054988;28;20069;-36
2021/11/12 02:21:52;;;;;;;9.25;6.45;;;;;;;;;;5072917;28;20107;-36
2021/11/12 02:24:18;;;;;;;15.65;6.55;;;;;;;;;;5072712;28;20048;-36
2021/11/12 02:26:46;;;;;;;14.23;6.63;;;;;;;;;;5072828;28;20387;-36
2021/11/12 02:29:12;;;;;;;14.82;6.15;;;;;;;;;;5072560;28;20032;-36
2021/11/12 02:31:38;;;;;;;11.98;5.97;;;;;;;;;;5072999;28;20025;-36
2021/11/12 02:34:09;;;;;;;12.48;7.10;;;;;;;;;;5054915;28;20107;-36
2021/11/12 02:36:35;;;;;;;20.40;7.43;;;;;;;;;;5071077;28;20046;-37
2021/11/12 02:39:02;;;;;;;15.88;7.05;;;;;;;;;;5072676;28;20033;-36
2021/11/12 02:41:28;;;;;;;12.10;6.72;;;;;;;;;;5072340;28;20039;-36
2021/11/12 02:43:54;;;;;;;15.80;7.10;;;;;;;;;;5072331;28;20032;-36
2021/11/12 02:46:21;;;;;;;16.02;6.95;;;;;;;;;;5054357;28;20024;-37
2021/11/12 02:48:47;;;;;;;14.15;7.53;;;;;;;;;;5072645;28;20012;-36
2021/11/12 02:51:15;;;;;;;14.10;7.38;;;;;;;;;;5054238;28;20037;-37
2021/11/12 02:53:41;;;;;;;13.75;8.02;;;;;;;;;;5072139;28;20443;-37
2021/11/12 02:56:14;;;;;;;17.00;7.65;;;;;;;;;;5072458;28;20048;-36
2021/11/12 02:58:40;;;;;;;;;;;;;;;;;;5072550;28;20028;-37
2021/11/12 03:01:06;;;;;;;9.90;6.22;;;;;;;;;;5054304;28;19910;-36
2021/11/12 03:03:31;;;;;;;15.38;6.28;;;;;;;;;;5071973;28;20505;-36
2021/11/12 03:05:57;;;;;;;14.20;6.93;;;;;;;;;;5072232;28;20017;-36
2021/11/12 03:08:22;;;;;;;10.13;6.20;;;;;;;;;;5071876;28;20090;-36
2021/11/12 03:10:50;;;;;;;14.00;6.47;;;;;;;;;;5072165;28;20020;-36
2021/11/12 03:13:16;;;;;;;13.48;6.95;;;;;;;;;;5071807;28;20032;-36
2021/11/12 03:15:41;;;;;;;12.15;6.60;;;;;;;;;;5070587;28;20609;-37
2021/11/12 03:18:07;;;;;;;16.17;6.82;;;;;;;;;;5053936;28;20392;-36
2021/11/12 03:20:33;;;;;;;11.75;6.85;;;;;;;;;;5071761;28;20024;-36
2021/11/12 03:23:04;;;;;;;9.90;6.25;;;;;;;;;;5070420;28;20040;-36
2021/11/12 04:49:36;;;;;;;9.77;6.50;;;;;;;;;;5074761;28;20105;-36
2021/11/12 05:46:38;;;;;;;12.32;6.13;;;;;;;;;;5073890;28;20067;-36
2021/11/12 05:51:40;;;;;;;15.18;7.22;;;;;;;;;;5073474;28;20048;-36
2021/11/12 05:57:09;;;;;;;15.02;6.97;;;;;;;;;;4991730;28;20088;-36
2021/11/12 05:59:35;;;;;;;9.80;6.30;;;;;;;;;;4991663;28;20636;-36
2021/11/12 06:02:02;;;;;;;12.18;7.07;;;;;;;;;;5029163;28;20044;-36
2021/11/12 06:04:28;;;;;;;14.90;6.25;;;;;;;;;;5073238;28;20029;-36
2021/11/12 06:06:53;;;;;;;11.75;6.85;;;;;;;;;;5073274;28;20024;-36
2021/11/12 06:09:19;;;;;;;8.02;5.60;;;;;;;;;;5073185;28;20094;-36
2021/11/12 06:11:44;;;;;;;13.43;6.60;;;;;;;;;;5073413;28;20028;-41
2021/11/12 06:14:10;;;;;;;9.23;5.85;;;;;;;;;;5073109;28;20100;-37
2021/11/12 06:16:36;;;;;;;11.48;5.00;;;;;;;;;;5073231;28;20032;-36
2021/11/12 06:19:02;;;;;;;13.90;6.10;;;;;;;;;;5072903;28;20387;-36
2021/11/12 06:21:29;;;;;;;10.57;4.97;;;;;;;;;;5072990;28;20468;-36
2021/11/12 06:23:54;;;;;;;10.00;6.05;;;;;;;;;;5073139;28;20437;-36
2021/11/12 06:26:20;;;;;;;10.70;6.90;;;;;;;;;;5072697;28;20103;-36
2021/11/12 06:28:47;;;;;;;13.63;7.25;;;;;;;;;;5072848;28;20037;-36
2021/11/12 06:31:13;;;;;;;12.95;6.63;;;;;;;;;;5072645;28;20024;-37
2021/11/12 06:33:38;;;;;;;11.38;7.07;;;;;;;;;;5072640;28;20024;-36
2021/11/12 06:36:03;;;;;;;12.60;6.55;;;;;;;;;;5072064;28;20043;-36
2021/11/12 06:38:31;;;;;;;13.48;6.32;;;;;;;;;;5072736;28;20119;-36
2021/11/12 06:40:58;;;;;;;14.57;5.53;;;;;;;;;;5071268;28;20032;-36
2021/11/12 06:51:18;;;;;;;9.93;5.10;;;;;;;;;;5072278;28;20166;-36
2021/11/12 06:53:43;;;;;;;15.98;5.97;;;;;;;;;;5072268;28;20103;-36
2021/11/12 06:56:08;;;;;;;9.50;5.53;;;;;;;;;;5072527;28;20024;-39
2021/11/12 06:58:37;;;;;;;8.35;5.18;;;;;;;;;;5072147;28;20024;-36
2021/11/12 07:01:03;;;;;;;8.88;5.60;;;;;;;;;;5072375;28;20074;-36
2021/11/12 07:03:28;;;;;;;8.73;5.38;;;;;;;;;;5072019;28;20442;-36
2021/11/12 07:05:54;;;;;;;10.18;5.43;;;;;;;;;;5071984;28;20495;-36
2021/11/12 07:08:19;;;;;;;9.32;5.70;;;;;;;;;;5071939;28;20016;-36
2021/11/12 07:10:45;;;;;;;8.23;5.47;;;;;;;;;;5072339;28;20035;-36
2021/11/12 07:13:11;;;;;;;9.05;5.35;;;;;;;;;;5071990;28;20023;-36
2021/11/12 07:15:37;;;;;;;10.60;5.10;;;;;;;;;;5071586;28;20032;-36
2021/11/12 07:18:03;;;;;;;8.43;4.82;;;;;;;;;;5071742;28;20016;-36
2021/11/12 07:20:28;;;;;;;7.72;4.60;;;;;;;;;;5071771;28;20035;-36
2021/11/12 07:22:54;;;;;;;5.88;3.28;;;;;;;;;;5071467;28;20056;-36
2021/11/12 07:25:19;;;;;;;8.43;4.68;;;;;;;;;;5071811;28;20391;-36
2021/11/12 07:27:45;;;;;;;9.40;5.70;;;;;;;;;;5072083;28;20020;-36
2021/11/12 07:30:14;;;;;;;7.97;4.10;;;;;;;;;;5071612;28;20069;-36
2021/11/12 07:32:42;;;;;;;8.32;4.18;;;;;;;;;;5071527;28;20480;-37
2021/11/12 07:35:07;;;;;;;6.85;3.65;;;;;;;;;;5053669;28;20032;-36
2021/11/12 07:37:34;;;;;;;8.32;4.93;;;;;;;;;;5071353;28;20044;-36
2021/11/12 07:40:03;;;;;;;8.38;4.70;;;;;;;;;;5071540;28;20040;-36
2021/11/12 07:42:53;;;;;;;10.90;5.28;;;;;;;;;;5071270;28;20482;-36
2021/11/12 07:45:31;;;;;;;5.18;3.97;;;;;;;;;;5071679;28;20036;-36
2021/11/12 07:47:56;;;;;;;9.98;4.93;;;;;;;;;;5071029;28;20024;-37
2021/11/12 07:50:22;;;;;;;9.35;5.32;;;;;;;;;;5053444;28;20400;-37
2021/11/12 07:52:47;;;;;;;9.32;5.22;;;;;;;;;;5071390;28;20606;-36
2021/11/12 07:55:13;;;;;;;8.30;4.28;;;;;;;;;;5071668;28;20099;-36
2021/11/12 07:57:38;;;;;;;11.95;4.18;;;;;;;;;;5071192;28;20481;-36
2021/11/12 08:00:04;;;;;;;8.95;5.15;;;;;;;;;;5071431;28;20016;-36
2021/11/12 08:02:37;;;;;;;7.93;4.28;;;;;;;;;;5071221;28;20483;-36
2021/11/12 08:05:10;;;;;;;6.53;4.38;;;;;;;;;;5071718;28;20043;-36
2021/11/12 08:07:35;;;;;;;;;;;;;;;;;;5071973;28;20028;-37
2021/11/12 08:10:04;;;;;;;6.55;3.75;;;;;;;;;;5071248;28;19911;-37
2021/11/12 08:12:41;;;;;;;8.55;4.20;;;;;;;;;;5071141;28;20033;-36
2021/11/12 08:20:56;;;;;;;9.15;3.90;;;;;;;;;;5071145;28;20115;-37
2021/11/12 08:25:50;;;;;;;6.07;3.42;;;;;;;;;;5071304;28;20027;-36
2021/11/12 08:41:16;;;;;;;8.55;4.00;;;;;;;;;;5071182;28;20032;-36
2021/11/12 08:43:52;;;;;;;5.40;3.03;;;;;;;;;;5070765;28;20040;-36
2021/11/12 08:46:46;;;;;;;7.30;3.75;;;;;;;;;;5070800;28;20032;-36
2021/11/12 08:49:17;;;;;;;7.93;3.67;;;;;;;;;;5070625;28;20067;-37
2021/11/12 08:51:42;;;;;;;5.22;3.42;;;;;;;;;;5070846;28;20056;-36
2021/11/12 08:54:08;;;;;;;5.97;3.40;;;;;;;;;;5071087;28;20056;-36
2021/11/12 08:56:37;;;;;;;4.65;3.00;;;;;;;;;;5070673;28;20112;-36
2021/11/12 08:59:04;;;;;;;5.28;3.30;;;;;;;;;;5072441;28;20150;-38
2021/11/12 09:01:29;;;;;;;4.60;3.45;;;;;;;;;;5074617;28;20493;-37
2021/11/12 09:03:55;;;;;;;6.10;4.13;;;;;;;;;;5056422;28;20128;-36
2021/11/12 09:06:22;;;;;;;6.68;3.58;;;;;;;;;;5074228;28;20028;-36
2021/11/12 09:08:48;;;;;;;6.72;3.65;;;;;;;;;;5074309;28;20024;-36
2021/11/12 09:11:13;;;;;;;6.35;3.30;;;;;;;;;;5074651;28;20033;-36
2021/11/12 09:13:51;;;;;;;6.00;3.15;;;;;;;;;;5072958;28;20567;-36
2021/11/12 09:16:17;;;;;;;6.32;3.15;;;;;;;;;;5074187;28;20036;-36
2021/11/12 09:18:43;;;;;;;6.00;2.95;;;;;;;;;;5074154;28;20398;-36
2021/11/12 09:21:09;;;;;;;5.53;3.25;;;;;;;;;;5074113;28;20028;-36
2021/11/12 09:23:34;;;;;;;6.40;4.38;;;;;;;;;;5073923;28;20081;-36
2021/11/12 09:26:00;;;;;;;5.95;3.65;;;;;;;;;;5074007;28;20025;-36
2021/11/12 09:28:26;;;;;;;5.60;2.88;;;;;;;;;;5073956;28;20583;-36
2021/11/12 09:30:51;;;;;;;5.50;3.22;;;;;;;;;;5074112;28;20036;-36
2021/11/12 09:33:17;;;;;;;7.03;4.05;;;;;;;;;;5073946;28;20092;-37
2021/11/12 09:35:42;;;;;;;9.45;3.30;;;;;;;;;;5073571;28;20036;-37
2021/11/12 09:38:08;;;;;;;5.43;3.30;;;;;;;;;;5073821;28;20097;-36
2021/11/12 09:40:34;;;;;;;7.63;3.03;;;;;;;;;;5073703;28;20041;-36
2021/11/12 09:42:59;;;;;;;4.88;3.40;;;;;;;;;;5073975;28;20048;-36
2021/11/12 09:45:25;;;;;;;5.78;3.38;;;;;;;;;;5073449;28;20498;-36
2021/11/12 09:47:54;;;;;;;6.15;3.30;;;;;;;;;;5073704;28;20016;-36
2021/11/12 09:50:23;;;;;;;4.65;3.10;;;;;;;;;;5073478;28;20086;-37
2021/11/12 09:52:49;;;;;;;9.25;4.03;;;;;;;;;;5073560;28;20051;-37
2021/11/12 09:55:14;;;;;;;7.10;3.17;;;;;;;;;;5073537;28;20107;-37
2021/11/12 09:57:41;;;;;;;7.57;3.38;;;;;;;;;;5073329;28;20117;-36
2021/11/12 10:00:19;;;;;;;4.15;2.90;;;;;;;;;;5073525;28;20020;-36
2021/11/12 10:02:49;;;;;;;5.47;3.15;;;;;;;;;;5073616;28;20032;-36
2021/11/12 10:05:34;;;;;;;9.25;3.40;;;;;;;;;;5073272;28;20033;-36
2021/11/12 10:08:01;;;;;;;6.03;2.97;;;;;;;;;;5054878;28;20029;-36
2021/11/12 10:10:27;;;;;;;11.15;3.72;;;;;;;;;;5054425;28;20463;-36
2021/11/12 10:12:54;;;;;;;5.05;3.10;;;;;;;;;;5072218;28;20032;-36
2021/11/12 10:15:23;;;;;;;6.32;3.33;;;;;;;;;;5073032;28;20482;-36
2021/11/12 10:17:49;;;;;;;7.45;3.42;;;;;;;;;;5073069;28;20514;-36
2021/11/12 10:20:16;;;;;;;4.28;2.40;;;;;;;;;;5072964;28;20021;-36
2021/11/12 10:22:45;;;;;;;8.82;3.35;;;;;;;;;;5073157;28;20090;-36
2021/11/12 10:25:11;;;;;;;7.15;3.55;;;;;;;;;;5072868;28;20024;-36
2021/11/12 10:27:37;;;;;;;5.25;3.45;;;;;;;;;;5072725;28;20039;-36
2021/11/12 10:30:13;;;;;;;4.63;3.05;;;;;;;;;;5073183;28;20020;-36
2021/11/12 10:32:39;;;;;;;6.93;2.50;;;;;;;;;;5073059;28;20032;-36
2021/11/12 10:35:08;;;;;;;3.80;2.83;;;;;;;;;;5072728;28;20058;-36
2021/11/12 10:37:34;;;;;;;4.07;2.58;;;;;;;;;;5072429;28;20118;-36
2021/11/12 10:40:06;;;;;;;7.68;3.10;;;;;;;;;;5072630;28;20486;-36
2021/11/12 10:42:33;;;;;;;6.85;2.70;;;;;;;;;;5072606;28;20119;-36
2021/11/12 10:44:59;;;;;;;4.70;2.90;;;;;;;;;;5072580;28;20082;-37
2021/11/12 10:47:26;;;;;;;4.10;2.50;;;;;;;;;;5072595;28;20424;-36
2021/11/12 10:49:54;;;;;;;5.82;2.55;;;;;;;;;;5072421;28;20020;-36
2021/11/12 10:52:24;;;;;;;9.38;3.47;;;;;;;;;;5072308;28;20082;-36
2021/11/12 10:54:58;;;;;;;6.78;2.97;;;;;;;;;;5072182;28;20036;-36
2021/11/12 10:57:33;;;;;;;6.55;3.15;;;;;;;;;;5054631;28;20039;-36
2021/11/12 11:00:17;;;;;;;3.28;2.40;;;;;;;;;;5054253;28;20085;-36
2021/11/12 11:02:44;;;;;;;4.45;2.90;;;;;;;;;;5072016;28;20024;-36
2021/11/12 11:05:21;;;;;;;5.43;2.80;;;;;;;;;;5054089;28;20020;-36
2021/11/12 11:07:54;;;;;;;7.97;2.75;;;;;;;;;;5072424;28;20036;-36
2021/11/12 11:10:49;;;;;;;4.60;3.20;;;;;;;;;;5070786;28;20032;-36
2021/11/12 11:13:35;;;;;;;6.85;2.75;;;;;;;;;;5054833;28;20073;-36
2021/11/12 11:16:08;;;;;;;5.10;2.95;;;;;;;;;;5071819;28;20070;-36
2021/11/12 11:18:50;;;;;;;10.02;3.13;;;;;;;;;;5072049;28;20032;-36
2021/11/12 11:23:47;;;;;;;6.72;3.58;;;;;;;;;;5071874;28;20430;-36
2021/11/12 11:26:14;;;;;;;11.07;3.20;;;;;;;;;;5071916;28;20020;-36
2021/11/12 11:28:39;;;;;;;5.53;2.42;;;;;;;;;;5071668;28;20035;-36
2021/11/12 11:31:06;;;;;;;3.35;2.55;;;;;;;;;;5054104;28;20062;-36
2021/11/12 11:33:32;;;;;;;3.67;2.35;;;;;;;;;;5071585;28;20036;-36
2021/11/12 11:35:58;;;;;;;5.90;2.95;;;;;;;;;;5071420;28;20033;-36
2021/11/12 11:38:31;;;;;;;4.88;3.10;;;;;;;;;;5071786;28;20048;-36
2021/11/12 11:40:57;;;;;;;4.93;3.22;;;;;;;;;;5071638;28;20540;-36
2021/11/12 11:43:24;;;;;;;3.30;2.90;;;;;;;;;;5071678;28;20025;-36
2021/11/12 11:45:50;;;;;;;4.65;2.65;;;;;;;;;;5071470;28;20028;-37
2021/11/12 11:48:16;;;;;;;6.65;3.03;;;;;;;;;;5071528;28;20352;-37
2021/11/12 11:50:52;;;;;;;5.20;3.00;;;;;;;;;;5071658;28;20028;-36
2021/11/12 11:53:32;;;;;;;4.95;2.45;;;;;;;;;;5071433;28;20040;-36
2021/11/12 11:56:16;;;;;;;4.82;2.80;;;;;;;;;;5071415;28;20382;-36
2021/11/12 11:58:43;;;;;;;5.97;2.42;;;;;;;;;;5071145;28;20040;-37
2021/11/12 12:01:18;;;;;;;8.10;3.65;;;;;;;;;;5071435;28;20051;-36
2021/11/12 12:03:44;;;;;;;5.68;2.42;;;;;;;;;;5069784;28;20040;-36
2021/11/12 12:06:14;;;;;;;8.73;3.28;;;;;;;;;;5053285;28;20024;-36
2021/11/12 12:08:49;;;;;;;6.30;3.47;;;;;;;;;;5071204;28;20067;-36
2021/11/12 12:11:17;;;;;;;10.15;3.33;;;;;;;;;;5071594;28;20060;-36
2021/11/12 12:13:42;;;;;;;5.97;2.53;;;;;;;;;;5053273;28;20055;-37
2021/11/12 12:16:08;;;;;;;3.63;2.33;;;;;;;;;;5071141;28;20068;-36
2021/11/12 12:18:43;;;;;;;8.25;3.28;;;;;;;;;;5071094;28;20048;-36
2021/11/12 12:22:04;;;;;;;8.05;3.40;;;;;;;;;;5071123;28;20078;-36
2021/11/12 12:33:38;;;;;;;4.93;3.50;;;;;;;;;;5071260;28;20033;-36
2021/11/12 13:25:23;;;;;;;5.05;2.42;;;;;;;;;;5053950;28;20040;-37
2021/11/12 13:27:49;;;;;;;5.75;3.55;;;;;;;;;;5054382;28;20040;-37
2021/11/12 13:30:25;;;;;;;7.78;3.22;;;;;;;;;;5036195;28;20470;-36
2021/11/12 13:32:50;;;;;;;5.28;2.72;;;;;;;;;;5054277;28;20037;-37
2021/11/12 13:35:26;;;;;;;4.03;2.55;;;;;;;;;;5053851;28;20020;-36
2021/11/12 13:37:52;;;;;;;5.63;2.83;;;;;;;;;;5053767;28;20495;-37
2021/11/12 13:40:17;;;;;;;5.05;2.78;;;;;;;;;;5053749;28;20043;-36
2021/11/12 13:42:45;;;;;;;6.93;2.53;;;;;;;;;;5053631;28;20111;-37
2021/11/12 13:45:22;;;;;;;5.97;2.90;;;;;;;;;;5052479;28;20483;-37
2021/11/12 13:47:58;;;;;;;9.95;3.03;;;;;;;;;;5053844;28;20392;-36
2021/11/12 13:50:24;;;;;;;4.30;2.97;;;;;;;;;;5053642;28;20100;-37
2021/11/12 13:52:51;;;;;;;8.07;3.58;;;;;;;;;;5053720;28;20117;-36
2021/11/12 13:55:17;;;;;;;5.38;3.47;;;;;;;;;;5053525;28;20454;-36
2021/11/12 13:57:53;;;;;;;7.30;4.03;;;;;;;;;;5053349;28;20100;-37
2021/11/12 14:00:19;;;;;;;3.90;2.20;;;;;;;;;;5053410;28;20491;-36
2021/11/12 14:03:04;;;;;;;5.25;2.58;;;;;;;;;;5053556;28;20032;-36
2021/11/12 14:05:32;;;;;;;5.53;2.55;;;;;;;;;;5053469;28;20115;-36
2021/11/12 14:08:10;;;;;;;4.13;2.75;;;;;;;;;;5053504;28;20021;-36
2021/11/12 14:10:38;;;;;;;5.15;2.83;;;;;;;;;;5053228;28;20032;-37
2021/11/12 14:13:06;;;;;;;3.65;2.17;;;;;;;;;;5053177;28;20027;-37
2021/11/12 14:18:33;;;;;;;6.95;3.00;;;;;;;;;;5053114;28;20032;-36
2021/11/12 14:23:51;;;;;;;3.90;2.40;;;;;;;;;;5051546;28;20045;-36
2021/11/12 14:26:31;;;;;;;5.95;3.13;;;;;;;;;;5053142;28;20017;-37
2021/11/12 14:31:37;;;;;;;7.40;2.55;;;;;;;;;;5052984;28;20021;-36
2021/11/12 14:36:47;;;;;;;12.00;3.20;;;;;;;;;;5052432;28;20040;-37
2021/11/12 14:42:29;;;;;;;3.95;2.72;;;;;;;;;;5052819;28;20551;-36
2021/11/12 14:45:05;;;;;;;4.97;2.55;;;;;;;;;;5052415;28;20036;-36
2021/11/12 14:47:41;;;;;;;4.47;2.55;;;;;;;;;;5052379;28;20028;-37
2021/11/12 14:50:22;;;;;;;3.40;2.45;;;;;;;;;;5052437;28;20032;-36
2021/11/12 14:53:03;;;;;;;3.28;2.03;;;;;;;;;;5052572;28;20140;-37
2021/11/12 14:55:29;;;;;;;4.30;1.98;;;;;;;;;;5052287;28;20029;-36
2021/11/12 14:57:56;;;;;;;4.78;2.85;;;;;;;;;;5052242;28;20020;-36
2021/11/12 15:00:22;;;;;;;4.50;2.20;;;;;;;;;;5052636;28;20375;-36
2021/11/12 15:02:47;;;;;;;8.27;2.33;;;;;;;;;;5052109;28;20013;-36
2021/11/12 15:05:14;;;;;;;6.53;2.90;;;;;;;;;;5052122;28;20056;-36
2021/11/12 15:07:43;;;;;;;5.38;3.17;;;;;;;;;;5052058;28;20048;-36
2021/11/12 15:10:17;;;;;;;4.65;3.40;;;;;;;;;;5052043;28;20438;-36
2021/11/12 15:12:49;;;;;;;6.43;3.45;;;;;;;;;;5052004;28;20566;-37
2021/11/12 15:15:15;;;;;;;3.63;2.17;;;;;;;;;;5052162;28;20036;-36
2021/11/12 15:17:41;;;;;;;6.78;3.58;;;;;;;;;;5051899;28;20101;-36
2021/11/12 15:20:07;;;;;;;4.60;2.53;;;;;;;;;;5051849;28;20029;-36
2021/11/12 15:28:01;;;;;;;6.90;2.90;;;;;;;;;;5052092;28;20804;-36
2021/11/12 15:32:57;;;;;;;6.13;2.88;;;;;;;;;;5051728;28;20020;-37
2021/11/12 15:35:24;;;;;;;3.58;2.65;;;;;;;;;;5051865;28;20037;-36
2021/11/12 15:40:25;;;;;;;5.30;2.75;;;;;;;;;;5051842;28;20025;-36
2021/11/12 15:48:09;;;;;;;5.22;2.80;;;;;;;;;;5051482;28;20052;-37
2021/11/12 15:50:50;;;;;;;6.32;2.75;;;;;;;;;;5051589;28;20029;-36
2021/11/12 15:53:29;;;;;;;5.85;2.88;;;;;;;;;;5035812;28;20033;-36
2021/11/12 15:56:11;;;;;;;4.90;2.75;;;;;;;;;;5051342;28;20116;-36
2021/11/12 15:58:47;;;;;;;10.07;3.63;;;;;;;;;;5051395;28;20036;-36
2021/11/12 16:01:50;;;;;;;6.53;3.30;;;;;;;;;;5051346;28;20025;-36
2021/11/12 16:04:41;;;;;;;6.10;2.83;;;;;;;;;;5051329;28;20399;-36
2021/11/12 16:15:43;;;;;;;6.05;3.30;;;;;;;;;;5038041;28;20403;-36
2021/11/12 16:26:07;;;;;;;8.80;3.20;;;;;;;;;;5051252;28;20033;-36
2021/11/12 16:28:46;;;;;;;2.97;2.30;;;;;;;;;;5051220;28;20049;-36
2021/11/12 16:31:12;;;;;;;7.85;3.85;;;;;;;;;;5051346;28;20037;-36
2021/11/12 16:33:38;;;;;;;6.90;3.47;;;;;;;;;;5050962;28;20806;-36
2021/11/12 16:36:06;;;;;;;8.07;2.78;;;;;;;;;;5050772;28;20124;-36
2021/11/12 16:38:34;;;;;;;3.63;2.65;;;;;;;;;;5051089;28;20071;-36
2021/11/12 16:41:19;;;;;;;4.45;3.22;;;;;;;;;;5050955;28;20501;-36
2021/11/12 16:49:17;;;;;;;6.45;3.45;;;;;;;;;;5050927;28;20032;-36
2021/11/12 16:54:31;;;;;;;6.60;2.97;;;;;;;;;;5049262;28;20383;-36
2021/11/12 17:02:31;;;;;;;7.65;4.07;;;;;;;;;;5050808;28;20398;-36
2021/11/12 17:05:04;;;;;;;5.28;3.00;;;;;;;;;;5050470;28;20744;-37
2021/11/12 17:10:19;;;;;;;12.35;3.72;;;;;;;;;;5050443;28;20095;-36
2021/11/12 17:47:14;;;;;;;7.38;4.10;;;;;;;;;;5053708;28;20040;-37
2021/11/12 18:03:25;;;;;;;4.93;3.17;;;;;;;;;;5053600;28;20029;-36
2021/11/12 18:06:08;;;;;;;5.35;3.47;;;;;;;;;;5053502;28;20056;-37
2021/11/12 21:44:48;;;;;;;7.40;5.13;;;;;;;;;;5053570;28;20078;-37
2021/11/12 21:47:04;;;;;;;9.48;4.95;;;;;;;;;;5053414;28;20081;-36
2021/11/12 21:49:29;;;;;;;7.55;5.32;;;;;;;;;;5053639;28;20021;-36
2021/11/12 21:51:58;;;;;;;10.63;5.50;;;;;;;;;;5053543;28;20029;-36
2021/11/12 21:54:23;;;;;;;10.27;5.00;;;;;;;;;;5053608;28;20025;-36
2021/11/12 21:56:48;;;;;;;8.70;4.88;;;;;;;;;;5053356;28;20052;-36
2021/11/12 21:59:14;;;;;;;8.60;4.90;;;;;;;;;;5053787;28;20071;-36
2021/11/12 22:01:40;;;;;;;9.63;4.82;;;;;;;;;;5053644;28;20486;-36
2021/11/12 22:04:06;;;;;;;10.60;5.22;;;;;;;;;;5035588;28;20033;-36
2021/11/12 22:06:31;;;;;;;9.98;5.72;;;;;;;;;;5052669;28;20459;-36
2021/11/12 22:08:57;;;;;;;13.50;4.65;;;;;;;;;;5053440;28;20036;-36
2021/11/12 22:11:22;;;;;;;6.07;3.40;;;;;;;;;;5052022;28;20470;-36
2021/11/12 22:13:48;;;;;;;8.35;5.32;;;;;;;;;;5053447;28;20028;-37
2021/11/12 22:16:19;;;;;;;10.63;5.28;;;;;;;;;;5053073;28;20392;-36
2021/11/12 22:18:45;;;;;;;10.85;5.07;;;;;;;;;;5053063;28;20021;-36
2021/11/12 22:21:11;;;;;;;8.38;4.68;;;;;;;;;;5035295;28;20020;-36
2021/11/12 22:23:36;;;;;;;7.95;5.07;;;;;;;;;;5053147;28;20422;-37
2021/11/12 22:26:02;;;;;;;10.75;4.63;;;;;;;;;;5053191;28;20028;-36
2021/11/12 22:28:28;;;;;;;10.77;5.32;;;;;;;;;;5035160;28;20403;-36
2021/11/12 22:30:53;;;;;;;14.23;5.53;;;;;;;;;;5052839;28;20017;-36
2021/11/12 22:33:19;;;;;;;13.68;7.15;;;;;;;;;;5052671;28;20040;-36
2021/11/12 22:35:45;;;;;;;9.43;4.72;;;;;;;;;;5052661;28;20104;-37
2021/11/12 22:38:11;;;;;;;7.60;5.05;;;;;;;;;;5053123;28;20041;-36
2021/11/12 22:40:38;;;;;;;12.07;5.57;;;;;;;;;;5052565;28;20024;-37
2021/11/12 22:43:03;;;;;;;9.95;5.65;;;;;;;;;;5052587;28;20475;-36
2021/11/12 22:45:29;;;;;;;10.63;5.80;;;;;;;;;;5052805;28;20032;-36
2021/11/12 22:47:54;;;;;;;8.57;5.38;;;;;;;;;;5051502;28;20079;-36
2021/11/12 22:50:22;;;;;;;8.95;5.38;;;;;;;;;;5052855;28;20025;-37
2021/11/12 22:52:48;;;;;;;8.13;5.22;;;;;;;;;;5052385;28;20494;-36
2021/11/12 22:55:14;;;;;;;9.63;5.50;;;;;;;;;;5052416;28;20062;-36
2021/11/12 22:57:39;;;;;;;10.23;5.60;;;;;;;;;;5052569;28;20032;-36
2021/11/12 23:00:08;;;;;;;8.30;5.35;;;;;;;;;;5052415;28;20543;-36
2021/11/12 23:02:35;;;;;;;11.30;5.45;;;;;;;;;;5052248;28;20479;-36
2021/11/12 23:05:01;;;;;;;9.80;5.38;;;;;;;;;;5052163;28;20033;-36
2021/11/12 23:07:26;;;;;;;11.23;5.38;;;;;;;;;;5052273;28;20028;-37
2021/11/12 23:09:52;;;;;;;11.82;5.05;;;;;;;;;;5052288;28;20047;-36
2021/11/12 23:12:17;;;;;;;7.25;4.93;;;;;;;;;;5052158;28;20090;-37
2021/11/12 23:14:42;;;;;;;11.93;5.95;;;;;;;;;;5052214;28;20067;-37
2021/11/12 23:17:08;;;;;;;11.45;5.43;;;;;;;;;;5051905;28;20036;-36
2021/11/12 23:19:34;;;;;;;11.52;4.55;;;;;;;;;;5052242;28;20021;-36
2021/11/12 23:21:59;;;;;;;8.43;5.32;;;;;;;;;;5051941;28;20025;-36
2021/11/12 23:24:25;;;;;;;14.02;6.50;;;;;;;;;;5051700;28;20365;-36
2021/11/12 23:26:50;;;;;;;9.93;5.38;;;;;;;;;;5052063;28;20029;-37
2021/11/12 23:29:16;;;;;;;8.25;4.95;;;;;;;;;;5052005;28;20034;-36
2021/11/12 23:31:42;;;;;;;10.38;4.95;;;;;;;;;;5051665;28;20033;-36
2021/11/12 23:34:07;;;;;;;7.80;4.93;;;;;;;;;;5051736;28;20137;-36
2021/11/12 23:36:33;;;;;;;12.90;5.63;;;;;;;;;;5051450;28;20068;-36
2021/11/12 23:38:59;;;;;;;11.45;5.45;;;;;;;;;;5051649;28;20043;-36
2021/11/12 23:41:24;;;;;;;10.02;5.00;;;;;;;;;;5051850;28;20087;-36
2021/11/12 23:43:51;;;;;;;7.53;4.95;;;;;;;;;;5051655;28;20047;-36
2021/11/12 23:46:17;;;;;;;12.27;6.22;;;;;;;;;;5051619;28;20638;-36
2021/11/12 23:48:42;;;;;;;7.82;4.80;;;;;;;;;;5051377;28;20066;-41
2021/11/12 23:51:08;;;;;;;8.93;5.68;;;;;;;;;;5051483;28;20028;-36
2021/11/12 23:53:33;;;;;;;7.93;5.60;;;;;;;;;;5051382;28;20021;-36
2021/11/12 23:55:59;;;;;;;12.13;5.80;;;;;;;;;;5051636;28;20071;-36
2021/11/12 23:58:25;;;;;;;14.30;5.70;;;;;;;;;;5051610;28;20100;-36
